Terminal Aerodrome Forecast
Issued by NWS Cleveland, OH

Home | Current Version | Previous Version | Text Only | Print | Product List | Glossary Off
Versions: 1 2 3 4 5 6 7 8 9 10 11 12 13 14 15 16 17 18 19 20 21

000
FTUS41 KCLE 160310 AAC
TAFERI
TAF AMD
KERI 160310Z 1603/1624 29006KT 6SM -RA BR SCT008 OVC040
      TEMPO 1603/1606 2SM -RA BR BKN008
     FM160600 31007KT 1SM BR BKN006 OVC025
     FM161500 31012G20KT 5SM BR OVC010
     FM161800 31012G20KT P6SM VCSH BKN025=

USA.gov is the U.S. government's official web portal to all federal, state and local government web resources and services.